Time;durP1;ratioP1;P1;durP2;ratioP2;P2;SDS_P1;SDS_P2;PMS_P1;PMS_P2;Temp;Humidity;BMP_temperature;BMP_pressure;BME280_temperature;BME280_humidity;BME280_pressure;Samples;Min_cycle;Max_cycle;Signal;HPM_P1;HPM_P2
2023/04/04 00:01:34;;;;;;;8.55;3.05;;;;;;;;;;4997391;28;20030;-58
2023/04/04 00:03:59;;;;;;;6.03;2.72;;;;;;;;;;4997369;28;20034;-57
2023/04/04 00:06:25;;;;;;;6.22;2.60;;;;;;;;;;4994771;28;20025;-56
2023/04/04 00:08:50;;;;;;;5.18;3.10;;;;;;;;;;4997156;28;20108;-53
2023/04/04 00:11:15;;;;;;;8.57;3.38;;;;;;;;;;4999977;28;20557;-56
2023/04/04 00:13:41;;;;;;;6.72;3.03;;;;;;;;;;4995614;28;20026;-57
2023/04/04 00:16:06;;;;;;;10.98;4.70;;;;;;;;;;4994932;28;20034;-56
2023/04/04 00:18:31;;;;;;;8.60;3.95;;;;;;;;;;4995169;28;20557;-56
2023/04/04 00:20:57;;;;;;;8.98;3.10;;;;;;;;;;4997021;28;20041;-54
2023/04/04 00:23:22;;;;;;;8.60;3.50;;;;;;;;;;4997517;28;20489;-55
2023/04/04 00:25:51;;;;;;;7.40;3.25;;;;;;;;;;4998363;28;20455;-56
2023/04/04 00:28:17;;;;;;;5.40;2.83;;;;;;;;;;4995507;28;20038;-52
2023/04/04 00:30:42;;;;;;;6.28;3.28;;;;;;;;;;4995293;28;20037;-53
2023/04/04 00:33:07;;;;;;;5.10;2.60;;;;;;;;;;4995237;28;20027;-51
2023/04/04 00:35:33;;;;;;;5.45;2.70;;;;;;;;;;4994166;28;20037;-56
2023/04/04 00:37:58;;;;;;;5.85;2.92;;;;;;;;;;4991955;28;20471;-53
2023/04/04 00:40:23;;;;;;;5.05;2.70;;;;;;;;;;5009716;28;20030;-54
2023/04/04 00:42:49;;;;;;;5.40;2.95;;;;;;;;;;4994259;28;20533;-52
2023/04/04 00:45:14;;;;;;;7.28;3.10;;;;;;;;;;4995027;28;20025;-59
2023/04/04 00:47:42;;;;;;;4.90;2.72;;;;;;;;;;4996828;28;20714;-55
2023/04/04 00:50:07;;;;;;;4.90;2.58;;;;;;;;;;5010728;28;20030;-54
2023/04/04 00:52:32;;;;;;;11.57;3.13;;;;;;;;;;4996331;28;20478;-54
2023/04/04 00:54:58;;;;;;;5.95;2.90;;;;;;;;;;5010810;28;20034;-58
2023/04/04 00:57:24;;;;;;;6.35;2.60;;;;;;;;;;4985027;28;20084;-54
2023/04/04 00:59:50;;;;;;;4.47;2.70;;;;;;;;;;4995737;28;20038;-58
2023/04/04 01:02:15;;;;;;;7.38;2.78;;;;;;;;;;4997499;28;20446;-54
2023/04/04 01:04:41;;;;;;;7.22;3.35;;;;;;;;;;5009312;28;20034;-50
2023/04/04 01:07:07;;;;;;;4.70;2.90;;;;;;;;;;4996333;28;20034;-54
2023/04/04 01:09:32;;;;;;;6.53;3.55;;;;;;;;;;5001955;28;20478;-54
2023/04/04 01:11:58;;;;;;;5.03;3.20;;;;;;;;;;4978610;28;20080;-58
2023/04/04 01:14:25;;;;;;;4.10;2.75;;;;;;;;;;4995607;28;20037;-54
2023/04/04 01:16:51;;;;;;;6.70;3.00;;;;;;;;;;4994418;28;20037;-56
2023/04/04 01:19:37;;;;;;;6.28;2.90;;;;;;;;;;5006636;28;20472;-58
2023/04/04 01:22:11;;;;;;;7.40;2.92;;;;;;;;;;4999300;28;20387;-56
2023/04/04 01:24:38;;;;;;;4.88;2.90;;;;;;;;;;5012199;28;20041;-54
2023/04/04 01:27:04;;;;;;;;;;;;;;;;;;4994103;28;20566;-50
2023/04/04 01:29:30;;;;;;;3.80;2.58;;;;;;;;;;4996060;28;19922;-54
2023/04/04 01:31:57;;;;;;;5.60;2.95;;;;;;;;;;4993938;28;20038;-55
2023/04/04 01:34:28;;;;;;;6.40;3.10;;;;;;;;;;4994146;28;20042;-53
2023/04/04 01:36:56;;;;;;;5.78;3.10;;;;;;;;;;4995524;28;20088;-55
2023/04/04 01:39:31;;;;;;;8.55;4.13;;;;;;;;;;5011036;28;20042;-55
2023/04/04 01:41:57;;;;;;;7.38;3.88;;;;;;;;;;4992261;28;20475;-54
2023/04/04 01:44:23;;;;;;;7.07;4.20;;;;;;;;;;5000219;28;20543;-60
2023/04/04 01:46:55;;;;;;;8.90;3.67;;;;;;;;;;4993926;28;20040;-56
2023/04/04 01:49:22;;;;;;;6.38;3.42;;;;;;;;;;5008339;28;20129;-57
2023/04/04 01:51:48;;;;;;;5.75;3.85;;;;;;;;;;4993497;28;20029;-56
2023/04/04 01:54:17;;;;;;;6.00;2.90;;;;;;;;;;5000934;28;20031;-55
2023/04/04 01:56:46;;;;;;;4.55;3.05;;;;;;;;;;4992781;28;20030;-58
2023/04/04 01:59:11;;;;;;;4.70;3.08;;;;;;;;;;5009250;28;20694;-56
2023/04/04 02:01:37;;;;;;;5.45;3.10;;;;;;;;;;5000770;28;20033;-55
2023/04/04 02:04:03;;;;;;;7.85;3.67;;;;;;;;;;4994984;28;20033;-52
2023/04/04 02:06:28;;;;;;;5.75;3.33;;;;;;;;;;4992976;28;20446;-53
2023/04/04 02:08:55;;;;;;;5.78;2.95;;;;;;;;;;5008583;28;20050;-53
2023/04/04 02:11:22;;;;;;;7.07;3.35;;;;;;;;;;4995373;28;20109;-54
2023/04/04 02:13:47;;;;;;;6.75;3.65;;;;;;;;;;5009047;28;20120;-53
2023/04/04 02:16:15;;;;;;;7.65;3.47;;;;;;;;;;4997914;28;20471;-54
2023/04/04 02:18:41;;;;;;;4.80;2.97;;;;;;;;;;4992691;28;20036;-54
2023/04/04 02:21:07;;;;;;;5.70;3.35;;;;;;;;;;4993392;28;20064;-55
2023/04/04 02:23:32;;;;;;;5.07;3.10;;;;;;;;;;4995214;28;20061;-54
2023/04/04 02:25:58;;;;;;;7.35;3.42;;;;;;;;;;4998835;28;20043;-54
2023/04/04 02:28:23;;;;;;;6.70;3.88;;;;;;;;;;4994597;28;20519;-53
2023/04/04 02:30:48;;;;;;;6.57;3.40;;;;;;;;;;4991516;28;20037;-54
2023/04/04 02:33:14;;;;;;;5.57;3.47;;;;;;;;;;5000287;28;20029;-56
2023/04/04 02:35:40;;;;;;;5.93;3.40;;;;;;;;;;5001429;28;20033;-55
2023/04/04 02:38:05;;;;;;;7.25;3.97;;;;;;;;;;4996981;28;20497;-53
2023/04/04 02:40:40;;;;;;;8.95;3.45;;;;;;;;;;5001307;28;20042;-51
2023/04/04 02:43:06;;;;;;;;;;;;;;;;;;5008248;28;20373;-51
2023/04/04 02:45:31;;;;;;;5.45;3.05;;;;;;;;;;4992281;28;19925;-50
2023/04/04 02:48:09;;;;;;;9.90;3.78;;;;;;;;;;4995045;28;20044;-58
2023/04/04 02:50:40;;;;;;;9.30;4.10;;;;;;;;;;4994241;28;20057;-53
2023/04/04 02:53:07;;;;;;;6.40;3.55;;;;;;;;;;4991954;28;20072;-51
2023/04/04 02:55:35;;;;;;;5.40;3.53;;;;;;;;;;5007093;28;20611;-55
2023/04/04 02:58:00;;;;;;;6.10;3.30;;;;;;;;;;5005452;28;20132;-57
2023/04/04 03:00:26;;;;;;;5.07;3.20;;;;;;;;;;5006707;28;20403;-53
2023/04/04 03:02:55;;;;;;;7.30;3.22;;;;;;;;;;4995025;28;20036;-54
2023/04/04 03:05:25;;;;;;;4.93;3.17;;;;;;;;;;4998374;28;20490;-56
2023/04/04 03:07:55;;;;;;;8.15;3.58;;;;;;;;;;4993764;28;20038;-54
2023/04/04 03:10:21;;;;;;;5.50;3.17;;;;;;;;;;4992570;28;20048;-57
2023/04/04 03:12:46;;;;;;;7.97;3.70;;;;;;;;;;4999986;28;20021;-55
2023/04/04 03:15:12;;;;;;;8.23;3.58;;;;;;;;;;5005871;28;20387;-53
2023/04/04 03:17:37;;;;;;;7.75;3.75;;;;;;;;;;5009824;28;20091;-58
2023/04/04 03:20:03;;;;;;;7.53;3.78;;;;;;;;;;4993353;28;20097;-56
2023/04/04 03:22:28;;;;;;;9.05;4.28;;;;;;;;;;5006204;28;20026;-55
2023/04/04 03:24:53;;;;;;;9.82;4.72;;;;;;;;;;5010523;28;20439;-55
2023/04/04 03:27:19;;;;;;;7.85;4.18;;;;;;;;;;4998191;28;20797;-56
2023/04/04 03:29:44;;;;;;;7.72;3.72;;;;;;;;;;4990013;28;20129;-54
2023/04/04 03:32:11;;;;;;;9.43;4.30;;;;;;;;;;4996816;28;20506;-53
2023/04/04 03:34:37;;;;;;;7.88;4.00;;;;;;;;;;4992457;28;20053;-55
2023/04/04 03:37:03;;;;;;;5.93;3.47;;;;;;;;;;4993444;28;20058;-57
2023/04/04 03:39:31;;;;;;;6.32;3.75;;;;;;;;;;4994012;28;20077;-52
2023/04/04 03:41:57;;;;;;;5.32;3.38;;;;;;;;;;4981418;28;20459;-57
2023/04/04 03:44:22;;;;;;;8.00;3.90;;;;;;;;;;4992816;28;20050;-53
2023/04/04 03:46:47;;;;;;;8.20;4.18;;;;;;;;;;5008084;28;20077;-56
2023/04/04 03:49:13;;;;;;;7.00;3.80;;;;;;;;;;5002019;28;20061;-56
2023/04/04 03:51:38;;;;;;;6.60;3.83;;;;;;;;;;4990787;28;20096;-54
2023/04/04 03:54:03;;;;;;;7.05;3.95;;;;;;;;;;4991210;28;20060;-55
2023/04/04 03:56:30;;;;;;;8.35;4.47;;;;;;;;;;5007002;28;20045;-53
2023/04/04 03:58:56;;;;;;;7.97;4.13;;;;;;;;;;4992450;28;20022;-56
2023/04/04 04:01:22;;;;;;;6.57;4.50;;;;;;;;;;4993227;28;20038;-50
2023/04/04 04:03:47;;;;;;;9.18;4.40;;;;;;;;;;4992898;28;20099;-57
2023/04/04 04:06:12;;;;;;;7.55;4.72;;;;;;;;;;4989530;28;20113;-50
2023/04/04 04:08:38;;;;;;;10.93;4.25;;;;;;;;;;5000834;28;20415;-54
2023/04/04 04:11:05;;;;;;;9.05;3.90;;;;;;;;;;4990954;28;20029;-55
2023/04/04 04:13:31;;;;;;;6.43;4.10;;;;;;;;;;5005589;28;20062;-52
2023/04/04 04:15:57;;;;;;;5.25;3.55;;;;;;;;;;4997461;28;20049;-53
2023/04/04 04:18:23;;;;;;;7.35;4.10;;;;;;;;;;5006339;28;20046;-52
2023/04/04 04:20:55;;;;;;;6.38;3.80;;;;;;;;;;4990014;28;20037;-56
2023/04/04 04:23:20;;;;;;;6.53;3.63;;;;;;;;;;4989912;28;20057;-55
2023/04/04 04:25:48;;;;;;;5.35;4.18;;;;;;;;;;5003930;28;20030;-55
2023/04/04 04:28:16;;;;;;;9.48;4.25;;;;;;;;;;5005334;28;20395;-56
2023/04/04 04:30:43;;;;;;;5.75;3.90;;;;;;;;;;5005152;28;20045;-52
2023/04/04 04:33:09;;;;;;;6.57;3.67;;;;;;;;;;4990008;28;20034;-53
2023/04/04 04:35:43;;;;;;;7.40;4.10;;;;;;;;;;4997845;28;20041;-54
2023/04/04 04:38:09;;;;;;;8.57;4.45;;;;;;;;;;5006753;28;20391;-51
2023/04/04 04:40:35;;;;;;;7.05;4.90;;;;;;;;;;5003510;28;20772;-56
2023/04/04 04:43:10;;;;;;;11.27;6.15;;;;;;;;;;4991544;28;20097;-52
2023/04/04 04:45:35;;;;;;;12.00;6.20;;;;;;;;;;4998948;28;20064;-55
2023/04/04 04:48:07;;;;;;;13.30;8.00;;;;;;;;;;5000341;28;20037;-55
2023/04/04 04:50:38;;;;;;;13.50;7.75;;;;;;;;;;4981682;28;20184;-56
2023/04/04 04:53:05;;;;;;;13.57;7.72;;;;;;;;;;5009572;28;20451;-55
2023/04/04 04:55:30;;;;;;;12.48;6.60;;;;;;;;;;5006336;28;20048;-53
2023/04/04 04:58:05;;;;;;;10.73;5.93;;;;;;;;;;4978987;28;20026;-54
2023/04/04 05:00:31;;;;;;;12.93;5.00;;;;;;;;;;4994217;28;20069;-57
2023/04/04 05:02:57;;;;;;;8.38;4.90;;;;;;;;;;4994024;28;20148;-57
2023/04/04 05:05:35;;;;;;;9.77;4.72;;;;;;;;;;4979531;28;20085;-54
2023/04/04 05:08:05;;;;;;;6.70;4.00;;;;;;;;;;5007092;28;20182;-52
2023/04/04 05:10:31;;;;;;;6.30;4.22;;;;;;;;;;5008065;28;20045;-54
2023/04/04 05:12:57;;;;;;;6.18;3.80;;;;;;;;;;4989701;28;20041;-52
2023/04/04 05:15:30;;;;;;;5.95;4.10;;;;;;;;;;4991914;28;20049;-57
2023/04/04 05:17:57;;;;;;;6.30;4.00;;;;;;;;;;4992777;28;20027;-58
2023/04/04 05:20:22;;;;;;;7.80;4.15;;;;;;;;;;4994820;28;20045;-54
2023/04/04 05:22:49;;;;;;;16.97;8.53;;;;;;;;;;4991616;28;20037;-55
2023/04/04 05:25:19;;;;;;;16.58;7.97;;;;;;;;;;4993022;28;20030;-56
2023/04/04 05:27:46;;;;;;;18.92;8.63;;;;;;;;;;4981154;28;20080;-55
2023/04/04 05:30:13;;;;;;;10.98;7.00;;;;;;;;;;4990718;28;20045;-53
2023/04/04 05:32:52;;;;;;;12.07;6.97;;;;;;;;;;4993083;28;20377;-54
2023/04/04 05:35:24;;;;;;;13.80;5.82;;;;;;;;;;5002267;28;20030;-56
2023/04/04 05:37:50;;;;;;;7.60;5.35;;;;;;;;;;5010228;28;20125;-54
2023/04/04 05:40:17;;;;;;;6.55;4.22;;;;;;;;;;5010013;28;20029;-53
2023/04/04 05:42:52;;;;;;;7.47;4.28;;;;;;;;;;5012672;28;20480;-57
2023/04/04 05:45:18;;;;;;;8.82;4.53;;;;;;;;;;4998338;28;20066;-56
2023/04/04 05:47:44;;;;;;;10.32;4.63;;;;;;;;;;5002192;28;20073;-54
2023/04/04 05:50:10;;;;;;;10.77;4.50;;;;;;;;;;4995156;28;20038;-56
2023/04/04 05:52:37;;;;;;;26.05;15.15;;;;;;;;;;5005564;28;20037;-55
2023/04/04 05:55:02;;;;;;;12.93;6.90;;;;;;;;;;5007696;28;20077;-55
2023/04/04 05:57:31;;;;;;;10.95;5.47;;;;;;;;;;4990849;28;20058;-57
2023/04/04 05:59:58;;;;;;;6.68;4.60;;;;;;;;;;5009669;28;20442;-53
2023/04/04 06:02:25;;;;;;;11.18;4.15;;;;;;;;;;5005295;28;20038;-57
2023/04/04 06:04:55;;;;;;;11.57;4.50;;;;;;;;;;4997196;28;20089;-54
2023/04/04 06:07:32;;;;;;;7.28;4.00;;;;;;;;;;5007732;28;20030;-56
2023/04/04 06:09:58;;;;;;;7.72;3.95;;;;;;;;;;4992731;28;20042;-56
2023/04/04 06:12:23;;;;;;;6.28;4.25;;;;;;;;;;5010716;28;20038;-55
2023/04/04 06:14:49;;;;;;;11.65;4.45;;;;;;;;;;5008872;28;20061;-52
2023/04/04 06:17:18;;;;;;;6.03;4.13;;;;;;;;;;5008446;28;20034;-54
2023/04/04 06:19:43;;;;;;;6.45;4.30;;;;;;;;;;4995404;28;20038;-53
2023/04/04 06:22:09;;;;;;;8.50;4.53;;;;;;;;;;5012288;28;20446;-54
2023/04/04 06:24:37;;;;;;;8.57;4.00;;;;;;;;;;5008192;28;20036;-51
2023/04/04 06:27:03;;;;;;;6.22;3.78;;;;;;;;;;5005793;28;20018;-53
2023/04/04 06:29:30;;;;;;;8.95;4.47;;;;;;;;;;5004800;28;20065;-60
2023/04/04 06:31:58;;;;;;;6.38;3.92;;;;;;;;;;4995796;28;20089;-53
2023/04/04 06:34:33;;;;;;;6.57;4.20;;;;;;;;;;4995399;28;20077;-52
2023/04/04 06:36:59;;;;;;;7.88;4.00;;;;;;;;;;5008250;28;20542;-53
2023/04/04 06:39:30;;;;;;;6.57;3.58;;;;;;;;;;4994396;28;20041;-55
2023/04/04 06:42:00;;;;;;;8.73;3.90;;;;;;;;;;5008847;28;20292;-55
2023/04/04 06:44:28;;;;;;;8.35;3.65;;;;;;;;;;4995099;28;20455;-52
2023/04/04 06:46:53;;;;;;;9.18;5.30;;;;;;;;;;4995045;28;20041;-54
2023/04/04 06:49:18;;;;;;;8.20;3.95;;;;;;;;;;4992894;28;20045;-56
2023/04/04 06:51:44;;;;;;;10.02;4.57;;;;;;;;;;5007240;28;20052;-52
2023/04/04 06:54:09;;;;;;;7.22;4.05;;;;;;;;;;4993697;28;20038;-53
2023/04/04 06:56:34;;;;;;;7.15;3.80;;;;;;;;;;5008890;28;20595;-51
2023/04/04 06:59:00;;;;;;;8.10;3.97;;;;;;;;;;4993229;28;20045;-55
2023/04/04 07:01:25;;;;;;;9.10;3.47;;;;;;;;;;4993803;28;20033;-54
2023/04/04 07:03:54;;;;;;;8.02;3.60;;;;;;;;;;5010612;28;20117;-54
2023/04/04 07:06:23;;;;;;;6.35;3.63;;;;;;;;;;4994484;28;20045;-56
2023/04/04 07:08:49;;;;;;;9.93;3.92;;;;;;;;;;4994779;28;20115;-54
2023/04/04 07:11:14;;;;;;;7.07;4.03;;;;;;;;;;4992479;28;20042;-52
2023/04/04 07:13:40;;;;;;;7.20;3.60;;;;;;;;;;4993811;28;20046;-49
2023/04/04 07:16:05;;;;;;;6.93;3.55;;;;;;;;;;4994667;28;20581;-52
2023/04/04 07:18:31;;;;;;;6.13;3.40;;;;;;;;;;5006090;28;20034;-55
2023/04/04 07:20:57;;;;;;;13.60;4.05;;;;;;;;;;4995568;28;20171;-50
2023/04/04 07:23:22;;;;;;;8.07;3.58;;;;;;;;;;4993973;28;20034;-54
2023/04/04 07:25:48;;;;;;;6.22;3.60;;;;;;;;;;4995272;28;20033;-50
2023/04/04 07:28:13;;;;;;;6.35;3.42;;;;;;;;;;4995118;28;20577;-50
2023/04/04 07:30:38;;;;;;;6.00;3.35;;;;;;;;;;4992540;28;20083;-54
2023/04/04 07:33:03;;;;;;;8.77;3.53;;;;;;;;;;4995642;28;20510;-51
2023/04/04 07:35:29;;;;;;;5.72;3.38;;;;;;;;;;5009950;28;20034;-49
2023/04/04 07:37:54;;;;;;;9.57;3.50;;;;;;;;;;4993984;28;20145;-50
2023/04/04 07:40:20;;;;;;;9.70;4.07;;;;;;;;;;4994160;28;20041;-54
2023/04/04 07:42:46;;;;;;;7.90;3.53;;;;;;;;;;4992851;28;20029;-52
2023/04/04 07:45:11;;;;;;;9.27;3.40;;;;;;;;;;4994036;28;20574;-53
2023/04/04 07:47:41;;;;;;;7.85;3.60;;;;;;;;;;4993680;28;20720;-53
2023/04/04 07:50:06;;;;;;;6.70;3.60;;;;;;;;;;4994184;28;20045;-53
2023/04/04 07:52:32;;;;;;;6.07;3.00;;;;;;;;;;4996200;28;20033;-52
2023/04/04 07:54:59;;;;;;;5.65;3.10;;;;;;;;;;4995160;28;20085;-53
2023/04/04 07:57:24;;;;;;;6.80;3.47;;;;;;;;;;4991757;28;20042;-55
2023/04/04 07:59:50;;;;;;;7.43;3.10;;;;;;;;;;4993119;28;20034;-53
2023/04/04 08:02:15;;;;;;;7.07;3.30;;;;;;;;;;4991694;28;20475;-54
2023/04/04 08:04:40;;;;;;;7.50;3.60;;;;;;;;;;4993947;28;20030;-53
2023/04/04 08:07:05;;;;;;;6.65;3.13;;;;;;;;;;4995729;28;20446;-53
2023/04/04 08:09:33;;;;;;;7.03;3.72;;;;;;;;;;4991935;28;20121;-55
2023/04/04 08:11:58;;;;;;;6.22;3.53;;;;;;;;;;4992280;28;20494;-56
2023/04/04 08:14:24;;;;;;;7.88;3.38;;;;;;;;;;4997325;28;20042;-52
2023/04/04 08:16:50;;;;;;;5.05;3.35;;;;;;;;;;4994483;28;20032;-55
2023/04/04 08:19:16;;;;;;;9.02;3.38;;;;;;;;;;4999869;28;20042;-56
2023/04/04 08:21:43;;;;;;;5.63;3.10;;;;;;;;;;4996609;28;20032;-53
2023/04/04 08:24:09;;;;;;;7.53;3.40;;;;;;;;;;4997292;28;20026;-53
2023/04/04 08:26:34;;;;;;;8.80;3.90;;;;;;;;;;4997713;28;20450;-55
2023/04/04 08:29:00;;;;;;;7.15;3.40;;;;;;;;;;4996924;28;20101;-55
2023/04/04 08:31:25;;;;;;;7.15;2.97;;;;;;;;;;4991809;28;20034;-58
2023/04/04 08:33:51;;;;;;;7.35;3.25;;;;;;;;;;5009208;28;20064;-53
2023/04/04 08:36:17;;;;;;;6.68;3.47;;;;;;;;;;4995179;28;20029;-52
2023/04/04 08:38:43;;;;;;;6.85;3.35;;;;;;;;;;5005212;28;20045;-54
2023/04/04 08:41:09;;;;;;;7.00;3.63;;;;;;;;;;4997473;28;20030;-51
2023/04/04 08:43:36;;;;;;;6.18;3.45;;;;;;;;;;4994812;28;20030;-51
2023/04/04 08:46:03;;;;;;;9.57;3.72;;;;;;;;;;4995299;28;20472;-53
2023/04/04 08:48:29;;;;;;;6.50;3.20;;;;;;;;;;4997312;28;20399;-53
2023/04/04 08:50:58;;;;;;;5.22;3.20;;;;;;;;;;4995951;28;20042;-50
2023/04/04 08:53:25;;;;;;;8.70;3.83;;;;;;;;;;4996464;28;20034;-55
2023/04/04 08:55:51;;;;;;;5.53;3.53;;;;;;;;;;4999472;28;20482;-55
2023/04/04 08:58:16;;;;;;;7.28;3.53;;;;;;;;;;4996471;28;20463;-54
2023/04/04 09:00:41;;;;;;;6.53;3.50;;;;;;;;;;4993587;28;20030;-57
2023/04/04 09:03:10;;;;;;;9.80;3.63;;;;;;;;;;5009742;28;20034;-53
2023/04/04 09:05:35;;;;;;;6.22;3.22;;;;;;;;;;5012948;28;20034;-55
2023/04/04 09:08:03;;;;;;;7.45;3.20;;;;;;;;;;4996983;28;20033;-56
2023/04/04 09:10:29;;;;;;;6.60;3.20;;;;;;;;;;4995495;28;20077;-58
2023/04/04 09:12:55;;;;;;;8.27;4.53;;;;;;;;;;4993871;28;20164;-53
2023/04/04 09:15:20;;;;;;;5.80;3.10;;;;;;;;;;4992907;28;20122;-55
2023/04/04 09:17:46;;;;;;;8.70;3.72;;;;;;;;;;4991679;28;20042;-52
2023/04/04 09:20:29;;;;;;;8.20;3.72;;;;;;;;;;4994964;28;20030;-51
2023/04/04 09:22:55;;;;;;;6.97;3.50;;;;;;;;;;4993509;28;20152;-54
2023/04/04 09:25:21;;;;;;;7.45;3.63;;;;;;;;;;4996793;28;20030;-55
2023/04/04 09:27:48;;;;;;;9.27;4.00;;;;;;;;;;5012419;28;20445;-55
2023/04/04 09:30:13;;;;;;;6.63;3.75;;;;;;;;;;4995186;28;20064;-55
2023/04/04 09:32:40;;;;;;;7.68;3.55;;;;;;;;;;4994198;28;20463;-53
2023/04/04 09:35:05;;;;;;;4.63;3.13;;;;;;;;;;4993765;28;20045;-55
2023/04/04 09:37:31;;;;;;;6.18;3.33;;;;;;;;;;5008229;28;20026;-52
2023/04/04 09:39:56;;;;;;;8.05;3.45;;;;;;;;;;4996405;28;20062;-53
2023/04/04 09:42:23;;;;;;;8.10;3.20;;;;;;;;;;4995905;28;20376;-56
2023/04/04 09:44:52;;;;;;;6.60;3.60;;;;;;;;;;4997821;28;20042;-56
2023/04/04 09:47:27;;;;;;;5.80;3.30;;;;;;;;;;5002238;28;20633;-56
2023/04/04 09:49:56;;;;;;;8.00;3.25;;;;;;;;;;5000114;28;20041;-51
2023/04/04 09:52:21;;;;;;;9.55;3.95;;;;;;;;;;5011460;28;20558;-56
2023/04/04 09:54:56;;;;;;;4.45;2.95;;;;;;;;;;4994204;28;20025;-55
2023/04/04 09:57:22;;;;;;;6.65;3.63;;;;;;;;;;4995909;28;20034;-56
2023/04/04 09:59:48;;;;;;;6.85;3.67;;;;;;;;;;4993901;28;20046;-57
2023/04/04 10:02:13;;;;;;;6.50;3.60;;;;;;;;;;4994832;28;20034;-56
2023/04/04 10:04:38;;;;;;;4.68;3.30;;;;;;;;;;4992859;28;20031;-54
2023/04/04 10:07:04;;;;;;;7.53;3.40;;;;;;;;;;4996139;28;20087;-57
2023/04/04 10:09:29;;;;;;;8.68;3.58;;;;;;;;;;4999327;28;20518;-59
2023/04/04 10:12:08;;;;;;;7.72;3.90;;;;;;;;;;4996139;28;20034;-53
2023/04/04 10:14:34;;;;;;;9.15;4.05;;;;;;;;;;4990269;28;20044;-56
2023/04/04 10:17:00;;;;;;;8.65;3.67;;;;;;;;;;4991336;28;20474;-57
2023/04/04 10:19:25;;;;;;;6.05;3.40;;;;;;;;;;4992669;28;20080;-57
2023/04/04 10:21:51;;;;;;;6.55;3.20;;;;;;;;;;4991050;28;20350;-56
2023/04/04 10:24:17;;;;;;;7.97;3.60;;;;;;;;;;5006956;28;20029;-54
2023/04/04 10:26:43;;;;;;;6.50;3.30;;;;;;;;;;4994843;28;20018;-54
2023/04/04 10:29:08;;;;;;;8.57;3.38;;;;;;;;;;4992437;28;20067;-56
2023/04/04 10:31:37;;;;;;;6.88;3.63;;;;;;;;;;5008847;28;20030;-54
2023/04/04 10:34:08;;;;;;;8.00;3.80;;;;;;;;;;4992784;28;20026;-52
2023/04/04 10:36:36;;;;;;;5.60;3.30;;;;;;;;;;5008814;28;20796;-56
2023/04/04 10:39:13;;;;;;;8.00;3.22;;;;;;;;;;4992220;28;20034;-53
2023/04/04 10:41:39;;;;;;;6.43;3.50;;;;;;;;;;4994636;28;20053;-55
2023/04/04 10:44:17;;;;;;;7.25;3.40;;;;;;;;;;4989072;28;20152;-53
2023/04/04 10:46:45;;;;;;;8.93;3.55;;;;;;;;;;4994384;28;20036;-56
2023/04/04 10:49:10;;;;;;;6.78;3.65;;;;;;;;;;4991677;28;20030;-56
2023/04/04 10:51:36;;;;;;;5.90;3.20;;;;;;;;;;4991753;28;20416;-53
2023/04/04 10:54:02;;;;;;;5.15;3.17;;;;;;;;;;4989687;28;20081;-56
2023/04/04 10:56:28;;;;;;;6.85;3.63;;;;;;;;;;4991004;28;20042;-55
2023/04/04 10:59:13;;;;;;;5.43;3.20;;;;;;;;;;4992971;28;20628;-54
2023/04/04 11:01:48;;;;;;;5.15;3.00;;;;;;;;;;4993625;28;20088;-52
2023/04/04 11:04:20;;;;;;;7.13;3.42;;;;;;;;;;4993035;28;20041;-56
2023/04/04 11:07:04;;;;;;;6.97;3.30;;;;;;;;;;4992478;28;20303;-55
2023/04/04 11:09:44;;;;;;;6.85;3.80;;;;;;;;;;4992021;28;20046;-60
2023/04/04 11:12:14;;;;;;;5.38;3.40;;;;;;;;;;4993699;28;20383;-54
2023/04/04 11:14:53;;;;;;;8.32;3.85;;;;;;;;;;4992454;28;20045;-51
2023/04/04 11:17:23;;;;;;;5.63;3.40;;;;;;;;;;4991758;28;20022;-56
2023/04/04 11:19:58;;;;;;;9.93;3.63;;;;;;;;;;4992950;28;20483;-55
2023/04/04 11:22:24;;;;;;;6.97;3.58;;;;;;;;;;5005312;28;20030;-54
2023/04/04 11:24:57;;;;;;;8.77;3.53;;;;;;;;;;4993740;28;20034;-54
2023/04/04 11:27:22;;;;;;;4.85;3.03;;;;;;;;;;4991872;28;20509;-56
2023/04/04 11:29:48;;;;;;;5.95;2.97;;;;;;;;;;4990728;28;20045;-56
2023/04/04 11:32:29;;;;;;;6.32;3.22;;;;;;;;;;4992840;28;20084;-57
2023/04/04 11:34:55;;;;;;;6.45;3.40;;;;;;;;;;4989661;28;21629;-54
2023/04/04 11:37:21;;;;;;;6.30;3.08;;;;;;;;;;4990714;28;20395;-52
2023/04/04 11:39:56;;;;;;;5.67;2.97;;;;;;;;;;4989889;28;20030;-58
2023/04/04 11:42:22;;;;;;;6.40;3.40;;;;;;;;;;4989456;28;20275;-55
2023/04/04 11:44:47;;;;;;;6.40;3.55;;;;;;;;;;4991429;28;20033;-59
2023/04/04 11:47:12;;;;;;;6.47;3.35;;;;;;;;;;4994921;28;20140;-58
2023/04/04 11:49:39;;;;;;;5.07;2.95;;;;;;;;;;4988730;28;20510;-56
2023/04/04 11:52:05;;;;;;;;;;;;;;;;;;4992040;28;20038;-57
2023/04/04 11:54:31;;;;;;;5.90;3.23;;;;;;;;;;4991853;28;19916;-60
2023/04/04 11:56:56;;;;;;;8.82;3.10;;;;;;;;;;4991524;28;20045;-56
2023/04/04 11:59:22;;;;;;;4.10;2.90;;;;;;;;;;4991639;28;20458;-55
2023/04/04 12:01:48;;;;;;;8.18;3.33;;;;;;;;;;4993643;28;20065;-56
2023/04/04 12:04:16;;;;;;;8.20;3.08;;;;;;;;;;4990787;28;20093;-55
2023/04/04 12:06:41;;;;;;;7.07;3.17;;;;;;;;;;4992713;28;20463;-57
2023/04/04 12:09:07;;;;;;;8.20;3.30;;;;;;;;;;4991580;28;20045;-58
2023/04/04 12:11:33;;;;;;;7.05;2.90;;;;;;;;;;4994143;28;20134;-58
2023/04/04 12:13:59;;;;;;;6.22;2.83;;;;;;;;;;4996399;28;20127;-59
2023/04/04 12:16:25;;;;;;;7.00;3.20;;;;;;;;;;4991197;28;20080;-57
2023/04/04 12:18:50;;;;;;;5.88;2.92;;;;;;;;;;4990947;28;20038;-56
2023/04/04 12:21:16;;;;;;;8.90;3.40;;;;;;;;;;4988992;28;20044;-55
2023/04/04 12:23:41;;;;;;;5.03;3.13;;;;;;;;;;4999799;28;20046;-57
2023/04/04 12:26:08;;;;;;;5.95;2.85;;;;;;;;;;4989879;28;20027;-57
2023/04/04 12:28:34;;;;;;;6.80;2.90;;;;;;;;;;4991602;28;20045;-58
2023/04/04 12:31:04;;;;;;;4.57;3.05;;;;;;;;;;4990784;28;20355;-61
2023/04/04 12:33:33;;;;;;;4.57;2.72;;;;;;;;;;4991879;28;20479;-57
2023/04/04 12:35:58;;;;;;;7.60;3.22;;;;;;;;;;4992252;28;20030;-60
2023/04/04 12:38:25;;;;;;;4.90;2.67;;;;;;;;;;4991356;28;20030;-57
2023/04/04 12:40:51;;;;;;;5.63;2.80;;;;;;;;;;4991774;28;20062;-57
2023/04/04 12:43:16;;;;;;;9.15;2.90;;;;;;;;;;4989275;28;20379;-59
2023/04/04 12:45:42;;;;;;;5.78;3.50;;;;;;;;;;4987387;28;20095;-58
2023/04/04 12:48:12;;;;;;;8.13;3.00;;;;;;;;;;4992152;28;20781;-57
2023/04/04 12:50:51;;;;;;;8.00;3.13;;;;;;;;;;4987479;28;20498;-53
2023/04/04 12:53:18;;;;;;;6.85;2.90;;;;;;;;;;4991740;28;20038;-58
2023/04/04 12:55:47;;;;;;;7.00;2.85;;;;;;;;;;4989938;28;20034;-59
2023/04/04 12:58:17;;;;;;;6.25;3.22;;;;;;;;;;4993000;28;20029;-58
2023/04/04 13:00:42;;;;;;;8.15;2.97;;;;;;;;;;5002955;28;20448;-54
2023/04/04 13:03:08;;;;;;;4.27;2.77;;;;;;;;;;4989173;28;20080;-59
2023/04/04 13:08:15;;;;;;;6.55;3.05;;;;;;;;;;5344874;23;20060;-55
2023/04/04 13:10:57;;;;;;;7.40;3.17;;;;;;;;;;5007343;28;20030;-56
2023/04/04 13:13:31;;;;;;;7.38;3.20;;;;;;;;;;5006632;28;20467;-50
2023/04/04 13:15:57;;;;;;;4.88;2.75;;;;;;;;;;5005057;28;20036;-54
2023/04/04 13:18:23;;;;;;;5.38;3.20;;;;;;;;;;5007404;28;20029;-51
2023/04/04 13:20:52;;;;;;;5.85;3.05;;;;;;;;;;5003463;28;20393;-54
2023/04/04 13:23:18;;;;;;;4.95;2.78;;;;;;;;;;5004636;28;20091;-56
2023/04/04 13:25:44;;;;;;;6.15;3.15;;;;;;;;;;5006710;28;20038;-56
2023/04/04 13:28:13;;;;;;;4.57;3.10;;;;;;;;;;5006618;28;20058;-55
2023/04/04 13:30:42;;;;;;;5.85;2.80;;;;;;;;;;5004307;28;20097;-58
2023/04/04 13:33:08;;;;;;;5.90;3.00;;;;;;;;;;5000512;28;20030;-56
2023/04/04 13:35:33;;;;;;;5.90;3.10;;;;;;;;;;4962619;28;20091;-58
2023/04/04 13:37:59;;;;;;;6.00;3.20;;;;;;;;;;4988367;28;20850;-54
2023/04/04 13:40:24;;;;;;;5.63;3.10;;;;;;;;;;5005298;28;20044;-53
2023/04/04 13:42:49;;;;;;;6.83;3.53;;;;;;;;;;5003849;28;20042;-54
2023/04/04 13:45:15;;;;;;;4.43;2.97;;;;;;;;;;4988263;28;20037;-52
2023/04/04 13:47:40;;;;;;;6.67;3.43;;;;;;;;;;5002141;28;20112;-55
2023/04/04 13:50:06;;;;;;;6.27;3.03;;;;;;;;;;5004031;28;20038;-56
2023/04/04 13:52:31;;;;;;;5.53;3.20;;;;;;;;;;5004602;28;20398;-52
2023/04/04 13:54:57;;;;;;;5.23;3.13;;;;;;;;;;5004518;28;20042;-53
2023/04/04 13:57:22;;;;;;;6.27;3.07;;;;;;;;;;5007187;28;20040;-55
2023/04/04 13:59:48;;;;;;;5.63;2.85;;;;;;;;;;5005320;28;20053;-54
2023/04/04 14:02:14;;;;;;;7.00;3.50;;;;;;;;;;5002409;28;20496;-56
2023/04/04 14:04:39;;;;;;;6.63;3.78;;;;;;;;;;5003628;28;20037;-57
2023/04/04 14:07:05;;;;;;;6.27;3.53;;;;;;;;;;5002206;28;20106;-57
2023/04/04 14:09:30;;;;;;;6.13;3.40;;;;;;;;;;5023381;28;20944;-54
2023/04/04 14:11:56;;;;;;;6.53;3.37;;;;;;;;;;5015727;28;20053;-56
2023/04/04 14:14:21;;;;;;;7.17;3.20;;;;;;;;;;5022569;28;20430;-54
2023/04/04 14:16:47;;;;;;;4.97;2.83;;;;;;;;;;5022599;28;20056;-55
2023/04/04 14:19:15;;;;;;;6.18;3.15;;;;;;;;;;5022013;28;20033;-57
2023/04/04 14:21:41;;;;;;;7.03;3.30;;;;;;;;;;5014379;28;20044;-59
2023/04/04 14:24:08;;;;;;;7.05;3.20;;;;;;;;;;5007205;28;20043;-56
2023/04/04 14:26:33;;;;;;;7.03;3.40;;;;;;;;;;5022306;28;20033;-58
2023/04/04 14:28:59;;;;;;;6.70;3.33;;;;;;;;;;5023087;28;20033;-58
2023/04/04 14:31:24;;;;;;;4.83;2.97;;;;;;;;;;5025442;28;20033;-53
2023/04/04 14:33:50;;;;;;;7.77;2.80;;;;;;;;;;5025471;28;20025;-55
2023/04/04 14:36:15;;;;;;;5.87;3.07;;;;;;;;;;5022718;28;20030;-56
2023/04/04 14:38:40;;;;;;;6.33;3.20;;;;;;;;;;5023107;28;20370;-56
2023/04/04 14:41:06;;;;;;;7.27;3.27;;;;;;;;;;5022962;28;20026;-54
2023/04/04 14:43:31;;;;;;;5.47;3.23;;;;;;;;;;5023159;28;20115;-56
2023/04/04 14:45:57;;;;;;;6.93;3.13;;;;;;;;;;5023185;28;20371;-54